sensor_id;sensor_type;location;lat;lon;timestamp;P1;durP1;ratioP1;P2;durP2;ratioP2
10677;SDS011;5387;48.722;9.110;2023-06-24T00:02:00;4.20;;;3.67;;
10677;SDS011;5387;48.722;9.110;2023-06-24T00:04:29;4.50;;;3.85;;
10677;SDS011;5387;48.722;9.110;2023-06-24T00:06:55;4.10;;;3.50;;
10677;SDS011;5387;48.722;9.110;2023-06-24T00:09:23;4.50;;;3.70;;
10677;SDS011;5387;48.722;9.110;2023-06-24T00:11:50;5.38;;;4.03;;
10677;SDS011;5387;48.722;9.110;2023-06-24T00:14:17;5.35;;;3.42;;
10677;SDS011;5387;48.722;9.110;2023-06-24T00:16:46;4.07;;;3.58;;
10677;SDS011;5387;48.722;9.110;2023-06-24T00:19:18;4.55;;;3.78;;
10677;SDS011;5387;48.722;9.110;2023-06-24T00:21:46;4.13;;;3.33;;
10677;SDS011;5387;48.722;9.110;2023-06-24T00:24:13;5.30;;;3.78;;
10677;SDS011;5387;48.722;9.110;2023-06-24T00:26:40;5.22;;;4.07;;
10677;SDS011;5387;48.722;9.110;2023-06-24T00:29:06;4.35;;;3.53;;
10677;SDS011;5387;48.722;9.110;2023-06-24T00:31:33;5.55;;;3.88;;
10677;SDS011;5387;48.722;9.110;2023-06-24T00:34:00;4.32;;;3.92;;
10677;SDS011;5387;48.722;9.110;2023-06-24T00:36:27;5.32;;;4.32;;
10677;SDS011;5387;48.722;9.110;2023-06-24T00:38:56;5.22;;;3.72;;
10677;SDS011;5387;48.722;9.110;2023-06-24T00:41:28;4.10;;;3.70;;
10677;SDS011;5387;48.722;9.110;2023-06-24T00:43:55;6.15;;;3.88;;
10677;SDS011;5387;48.722;9.110;2023-06-24T00:46:23;4.75;;;4.18;;
10677;SDS011;5387;48.722;9.110;2023-06-24T00:48:51;5.30;;;3.67;;
10677;SDS011;5387;48.722;9.110;2023-06-24T00:51:18;6.00;;;4.00;;
10677;SDS011;5387;48.722;9.110;2023-06-24T00:53:46;5.15;;;3.92;;
10677;SDS011;5387;48.722;9.110;2023-06-24T00:56:16;5.20;;;3.72;;
10677;SDS011;5387;48.722;9.110;2023-06-24T00:58:44;7.88;;;3.78;;
10677;SDS011;5387;48.722;9.110;2023-06-24T01:01:12;6.85;;;3.80;;
10677;SDS011;5387;48.722;9.110;2023-06-24T01:03:40;5.28;;;4.38;;
10677;SDS011;5387;48.722;9.110;2023-06-24T01:06:07;4.20;;;3.80;;
10677;SDS011;5387;48.722;9.110;2023-06-24T01:08:35;4.32;;;3.55;;
10677;SDS011;5387;48.722;9.110;2023-06-24T01:11:02;4.60;;;3.53;;
10677;SDS011;5387;48.722;9.110;2023-06-24T01:13:30;4.90;;;3.95;;
10677;SDS011;5387;48.722;9.110;2023-06-24T01:15:57;4.90;;;4.13;;
10677;SDS011;5387;48.722;9.110;2023-06-24T01:18:32;4.18;;;3.63;;
10677;SDS011;5387;48.722;9.110;2023-06-24T01:21:08;4.82;;;3.90;;
10677;SDS011;5387;48.722;9.110;2023-06-24T01:23:55;6.28;;;4.22;;
10677;SDS011;5387;48.722;9.110;2023-06-24T01:26:58;3.90;;;3.30;;
10677;SDS011;5387;48.722;9.110;2023-06-24T01:29:59;5.18;;;3.97;;
10677;SDS011;5387;48.722;9.110;2023-06-24T01:32:43;3.90;;;3.27;;
10677;SDS011;5387;48.722;9.110;2023-06-24T01:35:15;6.32;;;4.57;;
10677;SDS011;5387;48.722;9.110;2023-06-24T01:37:47;4.90;;;3.80;;
10677;SDS011;5387;48.722;9.110;2023-06-24T01:40:19;6.40;;;3.83;;
10677;SDS011;5387;48.722;9.110;2023-06-24T01:42:51;5.63;;;4.00;;
10677;SDS011;5387;48.722;9.110;2023-06-24T01:45:20;5.83;;;3.97;;
10677;SDS011;5387;48.722;9.110;2023-06-24T01:47:53;5.10;;;4.40;;
10677;SDS011;5387;48.722;9.110;2023-06-24T01:50:26;5.23;;;4.17;;
10677;SDS011;5387;48.722;9.110;2023-06-24T01:52:55;5.63;;;4.45;;
10677;SDS011;5387;48.722;9.110;2023-06-24T01:55:23;5.33;;;3.93;;
10677;SDS011;5387;48.722;9.110;2023-06-24T01:57:52;5.93;;;4.20;;
10677;SDS011;5387;48.722;9.110;2023-06-24T02:00:21;5.63;;;4.60;;
10677;SDS011;5387;48.722;9.110;2023-06-24T02:02:51;5.57;;;4.33;;
10677;SDS011;5387;48.722;9.110;2023-06-24T02:05:19;4.47;;;4.07;;
10677;SDS011;5387;48.722;9.110;2023-06-24T02:07:47;4.77;;;4.27;;
10677;SDS011;5387;48.722;9.110;2023-06-24T02:10:16;5.32;;;4.50;;
10677;SDS011;5387;48.722;9.110;2023-06-24T02:12:44;4.23;;;3.83;;
10677;SDS011;5387;48.722;9.110;2023-06-24T02:15:13;5.87;;;3.97;;
10677;SDS011;5387;48.722;9.110;2023-06-24T02:17:41;5.18;;;4.25;;
10677;SDS011;5387;48.722;9.110;2023-06-24T02:20:10;8.97;;;4.73;;
10677;SDS011;5387;48.722;9.110;2023-06-24T02:22:40;4.57;;;3.57;;
10677;SDS011;5387;48.722;9.110;2023-06-24T02:25:07;4.07;;;3.50;;
10677;SDS011;5387;48.722;9.110;2023-06-24T02:27:35;4.30;;;3.90;;
10677;SDS011;5387;48.722;9.110;2023-06-24T02:30:03;5.67;;;4.10;;
10677;SDS011;5387;48.722;9.110;2023-06-24T02:32:32;4.13;;;3.73;;
10677;SDS011;5387;48.722;9.110;2023-06-24T02:35:01;6.33;;;4.17;;
10677;SDS011;5387;48.722;9.110;2023-06-24T02:37:29;5.47;;;3.70;;
10677;SDS011;5387;48.722;9.110;2023-06-24T02:39:56;5.27;;;4.27;;
10677;SDS011;5387;48.722;9.110;2023-06-24T02:42:23;5.28;;;4.30;;
10677;SDS011;5387;48.722;9.110;2023-06-24T02:44:49;5.50;;;3.92;;
10677;SDS011;5387;48.722;9.110;2023-06-24T02:47:17;5.65;;;4.15;;
10677;SDS011;5387;48.722;9.110;2023-06-24T02:49:46;4.32;;;3.80;;
10677;SDS011;5387;48.722;9.110;2023-06-24T02:52:15;4.87;;;3.90;;
10677;SDS011;5387;48.722;9.110;2023-06-24T02:54:43;4.53;;;3.87;;
10677;SDS011;5387;48.722;9.110;2023-06-24T02:57:11;5.97;;;4.47;;
10677;SDS011;5387;48.722;9.110;2023-06-24T02:59:39;6.37;;;4.60;;
10677;SDS011;5387;48.722;9.110;2023-06-24T03:02:06;5.13;;;4.23;;
10677;SDS011;5387;48.722;9.110;2023-06-24T03:04:33;6.57;;;4.60;;
10677;SDS011;5387;48.722;9.110;2023-06-24T03:07:03;5.00;;;4.40;;
10677;SDS011;5387;48.722;9.110;2023-06-24T03:09:33;6.85;;;4.40;;
10677;SDS011;5387;48.722;9.110;2023-06-24T03:12:02;6.30;;;5.00;;
10677;SDS011;5387;48.722;9.110;2023-06-24T03:14:29;7.25;;;4.28;;
10677;SDS011;5387;48.722;9.110;2023-06-24T03:16:56;7.73;;;5.20;;
10677;SDS011;5387;48.722;9.110;2023-06-24T03:19:23;6.87;;;4.30;;
10677;SDS011;5387;48.722;9.110;2023-06-24T03:21:50;8.17;;;5.07;;
10677;SDS011;5387;48.722;9.110;2023-06-24T03:24:16;6.73;;;4.80;;
10677;SDS011;5387;48.722;9.110;2023-06-24T03:26:43;5.70;;;4.67;;
10677;SDS011;5387;48.722;9.110;2023-06-24T03:29:11;5.60;;;4.18;;
10677;SDS011;5387;48.722;9.110;2023-06-24T03:31:38;6.07;;;4.47;;
10677;SDS011;5387;48.722;9.110;2023-06-24T03:34:10;4.88;;;4.30;;
10677;SDS011;5387;48.722;9.110;2023-06-24T03:36:38;6.53;;;4.30;;
10677;SDS011;5387;48.722;9.110;2023-06-24T03:39:05;5.53;;;4.30;;
10677;SDS011;5387;48.722;9.110;2023-06-24T03:41:32;8.77;;;4.63;;
10677;SDS011;5387;48.722;9.110;2023-06-24T03:43:59;6.03;;;3.90;;
10677;SDS011;5387;48.722;9.110;2023-06-24T03:46:27;5.68;;;4.32;;
10677;SDS011;5387;48.722;9.110;2023-06-24T03:48:57;6.05;;;4.97;;
10677;SDS011;5387;48.722;9.110;2023-06-24T03:51:24;6.63;;;5.90;;
10677;SDS011;5387;48.722;9.110;2023-06-24T03:53:51;6.45;;;4.00;;
10677;SDS011;5387;48.722;9.110;2023-06-24T03:56:18;7.47;;;4.40;;
10677;SDS011;5387;48.722;9.110;2023-06-24T03:58:45;6.70;;;4.13;;
10677;SDS011;5387;48.722;9.110;2023-06-24T04:01:11;5.10;;;4.53;;
10677;SDS011;5387;48.722;9.110;2023-06-24T04:03:40;8.37;;;4.73;;
10677;SDS011;5387;48.722;9.110;2023-06-24T04:06:06;5.47;;;4.15;;
10677;SDS011;5387;48.722;9.110;2023-06-24T04:08:33;4.93;;;4.20;;
10677;SDS011;5387;48.722;9.110;2023-06-24T04:11:04;5.82;;;4.30;;
10677;SDS011;5387;48.722;9.110;2023-06-24T04:13:31;5.20;;;4.70;;
10677;SDS011;5387;48.722;9.110;2023-06-24T04:15:58;5.95;;;4.10;;
10677;SDS011;5387;48.722;9.110;2023-06-24T04:18:25;5.75;;;4.50;;
10677;SDS011;5387;48.722;9.110;2023-06-24T04:20:54;5.07;;;4.43;;
10677;SDS011;5387;48.722;9.110;2023-06-24T04:23:21;5.32;;;4.47;;
10677;SDS011;5387;48.722;9.110;2023-06-24T04:25:48;7.00;;;4.80;;
10677;SDS011;5387;48.722;9.110;2023-06-24T04:28:15;4.22;;;3.80;;
10677;SDS011;5387;48.722;9.110;2023-06-24T04:30:42;4.45;;;3.90;;
10677;SDS011;5387;48.722;9.110;2023-06-24T04:33:09;6.10;;;4.65;;
10677;SDS011;5387;48.722;9.110;2023-06-24T04:35:35;5.45;;;4.40;;
10677;SDS011;5387;48.722;9.110;2023-06-24T04:38:03;5.05;;;4.03;;
10677;SDS011;5387;48.722;9.110;2023-06-24T04:40:30;5.90;;;4.20;;
10677;SDS011;5387;48.722;9.110;2023-06-24T04:42:57;4.78;;;3.95;;
10677;SDS011;5387;48.722;9.110;2023-06-24T04:45:24;4.65;;;4.18;;
10677;SDS011;5387;48.722;9.110;2023-06-24T04:47:50;5.07;;;4.30;;
10677;SDS011;5387;48.722;9.110;2023-06-24T04:50:18;10.43;;;4.38;;
10677;SDS011;5387;48.722;9.110;2023-06-24T04:52:45;5.85;;;4.57;;
10677;SDS011;5387;48.722;9.110;2023-06-24T04:55:13;5.65;;;4.28;;
10677;SDS011;5387;48.722;9.110;2023-06-24T04:57:39;6.75;;;3.90;;
10677;SDS011;5387;48.722;9.110;2023-06-24T05:00:08;5.72;;;3.78;;
10677;SDS011;5387;48.722;9.110;2023-06-24T05:02:35;5.80;;;4.57;;
10677;SDS011;5387;48.722;9.110;2023-06-24T05:05:02;5.55;;;4.20;;
10677;SDS011;5387;48.722;9.110;2023-06-24T05:07:29;6.47;;;4.53;;
10677;SDS011;5387;48.722;9.110;2023-06-24T05:09:56;7.38;;;4.97;;
10677;SDS011;5387;48.722;9.110;2023-06-24T05:12:24;6.22;;;4.72;;
10677;SDS011;5387;48.722;9.110;2023-06-24T05:14:51;5.65;;;4.50;;
10677;SDS011;5387;48.722;9.110;2023-06-24T05:17:18;9.60;;;5.00;;
10677;SDS011;5387;48.722;9.110;2023-06-24T05:19:45;5.57;;;4.20;;
10677;SDS011;5387;48.722;9.110;2023-06-24T05:22:12;6.53;;;4.50;;
10677;SDS011;5387;48.722;9.110;2023-06-24T05:24:38;5.40;;;4.03;;
10677;SDS011;5387;48.722;9.110;2023-06-24T05:27:06;5.97;;;4.25;;
10677;SDS011;5387;48.722;9.110;2023-06-24T05:29:35;5.10;;;4.60;;
10677;SDS011;5387;48.722;9.110;2023-06-24T05:32:02;5.32;;;4.40;;
10677;SDS011;5387;48.722;9.110;2023-06-24T05:34:29;5.55;;;4.00;;
10677;SDS011;5387;48.722;9.110;2023-06-24T05:36:56;4.88;;;3.83;;
10677;SDS011;5387;48.722;9.110;2023-06-24T05:39:23;6.22;;;4.35;;
10677;SDS011;5387;48.722;9.110;2023-06-24T05:41:50;5.38;;;4.20;;
10677;SDS011;5387;48.722;9.110;2023-06-24T05:44:17;5.75;;;3.90;;
10677;SDS011;5387;48.722;9.110;2023-06-24T05:46:45;6.00;;;4.55;;
10677;SDS011;5387;48.722;9.110;2023-06-24T05:49:12;6.00;;;4.35;;
10677;SDS011;5387;48.722;9.110;2023-06-24T05:51:39;3.97;;;3.58;;
10677;SDS011;5387;48.722;9.110;2023-06-24T05:54:06;4.63;;;3.80;;
10677;SDS011;5387;48.722;9.110;2023-06-24T05:56:33;7.38;;;4.15;;
10677;SDS011;5387;48.722;9.110;2023-06-24T05:59:01;4.53;;;3.88;;
10677;SDS011;5387;48.722;9.110;2023-06-24T06:01:28;6.50;;;3.88;;
10677;SDS011;5387;48.722;9.110;2023-06-24T06:03:56;4.55;;;4.05;;
10677;SDS011;5387;48.722;9.110;2023-06-24T06:06:23;4.32;;;3.85;;
10677;SDS011;5387;48.722;9.110;2023-06-24T06:08:49;4.25;;;3.70;;
10677;SDS011;5387;48.722;9.110;2023-06-24T06:11:16;4.82;;;3.67;;
10677;SDS011;5387;48.722;9.110;2023-06-24T06:13:43;6.35;;;3.80;;
10677;SDS011;5387;48.722;9.110;2023-06-24T06:16:10;7.10;;;3.40;;
10677;SDS011;5387;48.722;9.110;2023-06-24T06:18:37;4.53;;;3.55;;
10677;SDS011;5387;48.722;9.110;2023-06-24T06:21:05;5.25;;;3.35;;
10677;SDS011;5387;48.722;9.110;2023-06-24T06:23:31;4.90;;;3.85;;
10677;SDS011;5387;48.722;9.110;2023-06-24T06:25:58;5.82;;;3.28;;
10677;SDS011;5387;48.722;9.110;2023-06-24T06:28:25;5.78;;;3.30;;
10677;SDS011;5387;48.722;9.110;2023-06-24T06:30:52;2.95;;;2.63;;
10677;SDS011;5387;48.722;9.110;2023-06-24T06:33:18;5.05;;;3.33;;
10677;SDS011;5387;48.722;9.110;2023-06-24T06:35:45;3.65;;;3.10;;
10677;SDS011;5387;48.722;9.110;2023-06-24T06:38:13;2.97;;;2.70;;
10677;SDS011;5387;48.722;9.110;2023-06-24T06:40:40;4.95;;;2.83;;
10677;SDS011;5387;48.722;9.110;2023-06-24T06:43:07;3.42;;;3.00;;
10677;SDS011;5387;48.722;9.110;2023-06-24T06:45:34;3.15;;;2.85;;
10677;SDS011;5387;48.722;9.110;2023-06-24T06:48:01;5.93;;;2.63;;
10677;SDS011;5387;48.722;9.110;2023-06-24T06:50:32;4.00;;;3.33;;
10677;SDS011;5387;48.722;9.110;2023-06-24T06:52:59;3.20;;;2.63;;
10677;SDS011;5387;48.722;9.110;2023-06-24T06:55:27;4.88;;;2.70;;
10677;SDS011;5387;48.722;9.110;2023-06-24T06:57:53;4.28;;;3.10;;
10677;SDS011;5387;48.722;9.110;2023-06-24T07:00:21;3.28;;;2.95;;
10677;SDS011;5387;48.722;9.110;2023-06-24T07:02:48;3.17;;;2.88;;
10677;SDS011;5387;48.722;9.110;2023-06-24T07:05:15;3.17;;;2.75;;
10677;SDS011;5387;48.722;9.110;2023-06-24T07:07:43;3.97;;;3.00;;
10677;SDS011;5387;48.722;9.110;2023-06-24T07:10:10;3.78;;;3.03;;
10677;SDS011;5387;48.722;9.110;2023-06-24T07:12:38;3.35;;;3.05;;
10677;SDS011;5387;48.722;9.110;2023-06-24T07:15:05;5.45;;;2.88;;
10677;SDS011;5387;48.722;9.110;2023-06-24T07:17:33;3.30;;;3.00;;
10677;SDS011;5387;48.722;9.110;2023-06-24T07:20:00;7.13;;;3.30;;
10677;SDS011;5387;48.722;9.110;2023-06-24T07:22:26;5.20;;;2.83;;
10677;SDS011;5387;48.722;9.110;2023-06-24T07:24:55;2.58;;;2.38;;
10677;SDS011;5387;48.722;9.110;2023-06-24T07:27:22;3.88;;;2.90;;
10677;SDS011;5387;48.722;9.110;2023-06-24T07:29:50;3.58;;;3.05;;
10677;SDS011;5387;48.722;9.110;2023-06-24T07:32:17;3.20;;;2.67;;
10677;SDS011;5387;48.722;9.110;2023-06-24T07:34:44;4.45;;;3.17;;
10677;SDS011;5387;48.722;9.110;2023-06-24T07:37:10;3.58;;;2.95;;
10677;SDS011;5387;48.722;9.110;2023-06-24T07:39:37;3.38;;;3.05;;
10677;SDS011;5387;48.722;9.110;2023-06-24T07:42:04;3.50;;;3.03;;
10677;SDS011;5387;48.722;9.110;2023-06-24T07:44:31;3.47;;;3.03;;
10677;SDS011;5387;48.722;9.110;2023-06-24T07:46:59;2.78;;;2.53;;
10677;SDS011;5387;48.722;9.110;2023-06-24T07:49:26;3.40;;;3.10;;
10677;SDS011;5387;48.722;9.110;2023-06-24T07:51:53;4.32;;;3.03;;
10677;SDS011;5387;48.722;9.110;2023-06-24T07:54:19;4.82;;;2.60;;
10677;SDS011;5387;48.722;9.110;2023-06-24T07:56:46;3.97;;;2.83;;
10677;SDS011;5387;48.722;9.110;2023-06-24T07:59:13;3.78;;;3.15;;
10677;SDS011;5387;48.722;9.110;2023-06-24T08:01:40;3.30;;;3.00;;
10677;SDS011;5387;48.722;9.110;2023-06-24T08:04:08;3.38;;;3.08;;
10677;SDS011;5387;48.722;9.110;2023-06-24T08:06:35;4.68;;;2.97;;
10677;SDS011;5387;48.722;9.110;2023-06-24T08:09:01;3.47;;;2.90;;
10677;SDS011;5387;48.722;9.110;2023-06-24T08:11:28;3.67;;;3.25;;
10677;SDS011;5387;48.722;9.110;2023-06-24T08:13:55;3.65;;;3.10;;
10677;SDS011;5387;48.722;9.110;2023-06-24T08:16:22;3.88;;;2.95;;
10677;SDS011;5387;48.722;9.110;2023-06-24T08:18:49;4.15;;;2.95;;
10677;SDS011;5387;48.722;9.110;2023-06-24T08:21:17;3.10;;;2.75;;
10677;SDS011;5387;48.722;9.110;2023-06-24T08:23:43;3.00;;;2.55;;
10677;SDS011;5387;48.722;9.110;2023-06-24T08:26:10;6.25;;;2.85;;
10677;SDS011;5387;48.722;9.110;2023-06-24T08:28:37;3.75;;;2.85;;
10677;SDS011;5387;48.722;9.110;2023-06-24T08:31:04;3.83;;;3.00;;
10677;SDS011;5387;48.722;9.110;2023-06-24T08:33:51;3.90;;;2.65;;
10677;SDS011;5387;48.722;9.110;2023-06-24T08:36:20;3.08;;;2.80;;
10677;SDS011;5387;48.722;9.110;2023-06-24T08:38:48;3.35;;;2.65;;
10677;SDS011;5387;48.722;9.110;2023-06-24T08:41:15;4.25;;;3.13;;
10677;SDS011;5387;48.722;9.110;2023-06-24T08:43:42;3.15;;;2.80;;
10677;SDS011;5387;48.722;9.110;2023-06-24T08:46:09;4.15;;;2.95;;
10677;SDS011;5387;48.722;9.110;2023-06-24T08:48:41;2.83;;;2.63;;
10677;SDS011;5387;48.722;9.110;2023-06-24T08:51:10;4.90;;;2.72;;
10677;SDS011;5387;48.722;9.110;2023-06-24T08:53:41;3.17;;;2.88;;
10677;SDS011;5387;48.722;9.110;2023-06-24T08:56:09;3.67;;;3.00;;
10677;SDS011;5387;48.722;9.110;2023-06-24T08:58:36;5.18;;;2.90;;
10677;SDS011;5387;48.722;9.110;2023-06-24T09:01:02;4.10;;;3.13;;
10677;SDS011;5387;48.722;9.110;2023-06-24T09:03:30;3.00;;;2.70;;
10677;SDS011;5387;48.722;9.110;2023-06-24T09:05:57;3.08;;;2.80;;
10677;SDS011;5387;48.722;9.110;2023-06-24T09:08:23;4.35;;;3.13;;
10677;SDS011;5387;48.722;9.110;2023-06-24T09:10:53;4.05;;;2.88;;
10677;SDS011;5387;48.722;9.110;2023-06-24T09:13:21;3.20;;;2.90;;
10677;SDS011;5387;48.722;9.110;2023-06-24T09:15:53;3.65;;;2.80;;
10677;SDS011;5387;48.722;9.110;2023-06-24T09:18:24;7.13;;;3.20;;
10677;SDS011;5387;48.722;9.110;2023-06-24T09:20:57;3.10;;;2.80;;
10677;SDS011;5387;48.722;9.110;2023-06-24T09:23:26;3.78;;;2.83;;
10677;SDS011;5387;48.722;9.110;2023-06-24T09:25:56;3.47;;;3.17;;
10677;SDS011;5387;48.722;9.110;2023-06-24T09:28:26;4.93;;;3.08;;
10677;SDS011;5387;48.722;9.110;2023-06-24T09:31:03;4.93;;;2.85;;
10677;SDS011;5387;48.722;9.110;2023-06-24T09:33:31;4.78;;;2.75;;
10677;SDS011;5387;48.722;9.110;2023-06-24T09:35:59;4.28;;;2.95;;
10677;SDS011;5387;48.722;9.110;2023-06-24T09:38:32;5.22;;;2.85;;
10677;SDS011;5387;48.722;9.110;2023-06-24T09:41:02;3.47;;;2.70;;
10677;SDS011;5387;48.722;9.110;2023-06-24T09:43:30;3.20;;;2.75;;
10677;SDS011;5387;48.722;9.110;2023-06-24T09:45:59;2.65;;;2.45;;
10677;SDS011;5387;48.722;9.110;2023-06-24T09:48:27;3.58;;;3.00;;
10677;SDS011;5387;48.722;9.110;2023-06-24T09:50:54;4.15;;;3.28;;
10677;SDS011;5387;48.722;9.110;2023-06-24T09:53:25;4.35;;;3.22;;
10677;SDS011;5387;48.722;9.110;2023-06-24T09:55:54;3.35;;;3.05;;
10677;SDS011;5387;48.722;9.110;2023-06-24T09:58:22;3.28;;;2.95;;
10677;SDS011;5387;48.722;9.110;2023-06-24T10:00:50;5.20;;;3.20;;
10677;SDS011;5387;48.722;9.110;2023-06-24T10:03:18;4.53;;;3.17;;
10677;SDS011;5387;48.722;9.110;2023-06-24T10:05:45;3.58;;;2.83;;
10677;SDS011;5387;48.722;9.110;2023-06-24T10:08:13;4.28;;;3.03;;
10677;SDS011;5387;48.722;9.110;2023-06-24T10:10:40;2.70;;;2.50;;
10677;SDS011;5387;48.722;9.110;2023-06-24T10:13:07;3.58;;;2.40;;
10677;SDS011;5387;48.722;9.110;2023-06-24T10:15:36;3.25;;;2.30;;
10677;SDS011;5387;48.722;9.110;2023-06-24T10:18:03;2.65;;;2.45;;
10677;SDS011;5387;48.722;9.110;2023-06-24T10:21:00;3.55;;;2.97;;
10677;SDS011;5387;48.722;9.110;2023-06-24T10:23:29;3.25;;;2.70;;
10677;SDS011;5387;48.722;9.110;2023-06-24T10:25:57;9.02;;;2.92;;
10677;SDS011;5387;48.722;9.110;2023-06-24T10:28:24;4.07;;;2.40;;
10677;SDS011;5387;48.722;9.110;2023-06-24T10:30:55;3.17;;;2.78;;
10677;SDS011;5387;48.722;9.110;2023-06-24T10:33:23;3.40;;;2.70;;
10677;SDS011;5387;48.722;9.110;2023-06-24T10:35:50;5.00;;;2.83;;
10677;SDS011;5387;48.722;9.110;2023-06-24T10:38:18;2.50;;;2.30;;
10677;SDS011;5387;48.722;9.110;2023-06-24T10:40:48;4.05;;;2.67;;
10677;SDS011;5387;48.722;9.110;2023-06-24T10:43:25;3.88;;;2.85;;
10677;SDS011;5387;48.722;9.110;2023-06-24T10:45:57;2.83;;;2.60;;
10677;SDS011;5387;48.722;9.110;2023-06-24T10:48:24;3.25;;;2.50;;
10677;SDS011;5387;48.722;9.110;2023-06-24T10:50:51;3.45;;;2.45;;
10677;SDS011;5387;48.722;9.110;2023-06-24T10:53:18;2.15;;;2.05;;
10677;SDS011;5387;48.722;9.110;2023-06-24T10:55:45;2.45;;;2.22;;
10677;SDS011;5387;48.722;9.110;2023-06-24T10:58:13;2.65;;;2.13;;
10677;SDS011;5387;48.722;9.110;2023-06-24T11:00:41;5.75;;;2.60;;
10677;SDS011;5387;48.722;9.110;2023-06-24T11:03:13;2.35;;;2.17;;
10677;SDS011;5387;48.722;9.110;2023-06-24T11:05:41;3.95;;;2.55;;
10677;SDS011;5387;48.722;9.110;2023-06-24T11:08:09;3.08;;;2.60;;
10677;SDS011;5387;48.722;9.110;2023-06-24T11:10:43;3.15;;;2.63;;
10677;SDS011;5387;48.722;9.110;2023-06-24T11:13:10;3.35;;;2.88;;
10677;SDS011;5387;48.722;9.110;2023-06-24T11:15:37;3.20;;;2.90;;
10677;SDS011;5387;48.722;9.110;2023-06-24T11:18:07;4.00;;;2.88;;
10677;SDS011;5387;48.722;9.110;2023-06-24T11:20:36;3.78;;;2.72;;
10677;SDS011;5387;48.722;9.110;2023-06-24T11:23:06;3.10;;;2.70;;
10677;SDS011;5387;48.722;9.110;2023-06-24T11:25:38;3.08;;;2.78;;
10677;SDS011;5387;48.722;9.110;2023-06-24T11:28:05;5.03;;;3.60;;
10677;SDS011;5387;48.722;9.110;2023-06-24T11:30:38;2.90;;;2.70;;
10677;SDS011;5387;48.722;9.110;2023-06-24T11:33:05;3.58;;;3.25;;
10677;SDS011;5387;48.722;9.110;2023-06-24T11:35:32;3.25;;;2.90;;
10677;SDS011;5387;48.722;9.110;2023-06-24T11:38:01;3.10;;;2.90;;
10677;SDS011;5387;48.722;9.110;2023-06-24T11:40:30;2.90;;;2.60;;
10677;SDS011;5387;48.722;9.110;2023-06-24T11:43:00;4.20;;;2.90;;
10677;SDS011;5387;48.722;9.110;2023-06-24T11:45:27;4.03;;;3.22;;
10677;SDS011;5387;48.722;9.110;2023-06-24T11:47:54;5.30;;;3.72;;
10677;SDS011;5387;48.722;9.110;2023-06-24T11:50:29;3.10;;;2.55;;
10677;SDS011;5387;48.722;9.110;2023-06-24T11:52:56;4.78;;;2.90;;
10677;SDS011;5387;48.722;9.110;2023-06-24T11:55:26;2.58;;;2.38;;
10677;SDS011;5387;48.722;9.110;2023-06-24T11:57:54;3.08;;;2.88;;
10677;SDS011;5387;48.722;9.110;2023-06-24T12:00:23;3.30;;;3.10;;
10677;SDS011;5387;48.722;9.110;2023-06-24T12:02:52;3.50;;;3.25;;
10677;SDS011;5387;48.722;9.110;2023-06-24T12:05:23;2.85;;;2.60;;
10677;SDS011;5387;48.722;9.110;2023-06-24T12:07:56;2.72;;;2.53;;
10677;SDS011;5387;48.722;9.110;2023-06-24T12:10:26;2.80;;;2.60;;
10677;SDS011;5387;48.722;9.110;2023-06-24T12:12:54;2.58;;;2.38;;
10677;SDS011;5387;48.722;9.110;2023-06-24T12:15:21;4.85;;;3.00;;
10677;SDS011;5387;48.722;9.110;2023-06-24T12:17:48;3.40;;;2.40;;
10677;SDS011;5387;48.722;9.110;2023-06-24T12:20:15;3.35;;;3.00;;
10677;SDS011;5387;48.722;9.110;2023-06-24T12:22:43;3.22;;;2.60;;
10677;SDS011;5387;48.722;9.110;2023-06-24T12:25:10;2.90;;;2.70;;
10677;SDS011;5387;48.722;9.110;2023-06-24T12:27:39;7.10;;;2.85;;
10677;SDS011;5387;48.722;9.110;2023-06-24T12:30:08;2.53;;;2.30;;
10677;SDS011;5387;48.722;9.110;2023-06-24T12:32:36;2.72;;;2.53;;
10677;SDS011;5387;48.722;9.110;2023-06-24T12:35:03;2.85;;;2.58;;
10677;SDS011;5387;48.722;9.110;2023-06-24T12:37:31;2.92;;;2.72;;
10677;SDS011;5387;48.722;9.110;2023-06-24T12:39:59;2.70;;;2.50;;
10677;SDS011;5387;48.722;9.110;2023-06-24T12:42:26;3.08;;;2.88;;
10677;SDS011;5387;48.722;9.110;2023-06-24T12:44:55;2.65;;;2.45;;
10677;SDS011;5387;48.722;9.110;2023-06-24T12:47:21;3.33;;;3.03;;
10677;SDS011;5387;48.722;9.110;2023-06-24T12:49:48;2.63;;;2.50;;
10677;SDS011;5387;48.722;9.110;2023-06-24T12:52:15;3.72;;;2.70;;
10677;SDS011;5387;48.722;9.110;2023-06-24T12:54:42;2.92;;;2.60;;
10677;SDS011;5387;48.722;9.110;2023-06-24T12:57:09;3.40;;;2.80;;
10677;SDS011;5387;48.722;9.110;2023-06-24T12:59:36;3.25;;;2.80;;
10677;SDS011;5387;48.722;9.110;2023-06-24T13:02:04;2.80;;;2.60;;
10677;SDS011;5387;48.722;9.110;2023-06-24T13:04:32;3.60;;;2.65;;
10677;SDS011;5387;48.722;9.110;2023-06-24T13:06:58;3.17;;;2.72;;
10677;SDS011;5387;48.722;9.110;2023-06-24T13:09:25;3.45;;;2.75;;
10677;SDS011;5387;48.722;9.110;2023-06-24T13:11:52;2.92;;;2.72;;
10677;SDS011;5387;48.722;9.110;2023-06-24T13:14:19;2.90;;;2.63;;
10677;SDS011;5387;48.722;9.110;2023-06-24T13:16:46;2.80;;;2.60;;
10677;SDS011;5387;48.722;9.110;2023-06-24T13:19:14;3.00;;;2.80;;
10677;SDS011;5387;48.722;9.110;2023-06-24T13:21:42;3.40;;;3.10;;
10677;SDS011;5387;48.722;9.110;2023-06-24T13:24:09;3.22;;;2.63;;
10677;SDS011;5387;48.722;9.110;2023-06-24T13:26:37;3.38;;;3.08;;
10677;SDS011;5387;48.722;9.110;2023-06-24T13:29:04;3.00;;;2.70;;
10677;SDS011;5387;48.722;9.110;2023-06-24T13:31:32;3.00;;;2.80;;
10677;SDS011;5387;48.722;9.110;2023-06-24T13:33:59;3.78;;;2.83;;
10677;SDS011;5387;48.722;9.110;2023-06-24T13:36:31;3.05;;;2.67;;
10677;SDS011;5387;48.722;9.110;2023-06-24T13:39:00;2.80;;;2.60;;
10677;SDS011;5387;48.722;9.110;2023-06-24T13:41:27;2.72;;;2.53;;
10677;SDS011;5387;48.722;9.110;2023-06-24T13:43:57;2.95;;;2.75;;
10677;SDS011;5387;48.722;9.110;2023-06-24T13:46:24;3.60;;;3.30;;
10677;SDS011;5387;48.722;9.110;2023-06-24T13:48:51;5.07;;;2.75;;
10677;SDS011;5387;48.722;9.110;2023-06-24T13:51:18;3.10;;;2.90;;
10677;SDS011;5387;48.722;9.110;2023-06-24T13:53:47;2.97;;;2.70;;
10677;SDS011;5387;48.722;9.110;2023-06-24T13:56:15;3.22;;;2.92;;
10677;SDS011;5387;48.722;9.110;2023-06-24T13:58:42;3.67;;;2.20;;
10677;SDS011;5387;48.722;9.110;2023-06-24T14:01:08;4.07;;;3.08;;
10677;SDS011;5387;48.722;9.110;2023-06-24T14:03:35;2.95;;;2.75;;
10677;SDS011;5387;48.722;9.110;2023-06-24T14:06:02;2.78;;;2.45;;
10677;SDS011;5387;48.722;9.110;2023-06-24T14:08:29;4.30;;;2.92;;
10677;SDS011;5387;48.722;9.110;2023-06-24T14:10:58;3.78;;;2.70;;
10677;SDS011;5387;48.722;9.110;2023-06-24T14:13:26;3.30;;;3.00;;
10677;SDS011;5387;48.722;9.110;2023-06-24T14:15:54;3.00;;;2.45;;
10677;SDS011;5387;48.722;9.110;2023-06-24T14:18:21;3.70;;;2.67;;
10677;SDS011;5387;48.722;9.110;2023-06-24T14:20:48;2.65;;;2.42;;
10677;SDS011;5387;48.722;9.110;2023-06-24T14:23:15;2.85;;;2.65;;
10677;SDS011;5387;48.722;9.110;2023-06-24T14:25:42;4.68;;;2.60;;
10677;SDS011;5387;48.722;9.110;2023-06-24T14:28:10;3.10;;;2.80;;
10677;SDS011;5387;48.722;9.110;2023-06-24T14:30:37;2.70;;;2.50;;
10677;SDS011;5387;48.722;9.110;2023-06-24T14:33:03;2.95;;;2.72;;
10677;SDS011;5387;48.722;9.110;2023-06-24T14:35:30;3.03;;;2.65;;
10677;SDS011;5387;48.722;9.110;2023-06-24T14:37:57;3.05;;;2.70;;
10677;SDS011;5387;48.722;9.110;2023-06-24T14:40:24;3.13;;;2.67;;
10677;SDS011;5387;48.722;9.110;2023-06-24T14:42:50;3.40;;;2.70;;
10677;SDS011;5387;48.722;9.110;2023-06-24T14:45:18;2.75;;;2.40;;
10677;SDS011;5387;48.722;9.110;2023-06-24T14:47:45;2.60;;;2.40;;
10677;SDS011;5387;48.722;9.110;2023-06-24T14:50:13;3.97;;;2.97;;
10677;SDS011;5387;48.722;9.110;2023-06-24T14:52:40;2.42;;;2.28;;
10677;SDS011;5387;48.722;9.110;2023-06-24T14:55:07;4.72;;;3.03;;
10677;SDS011;5387;48.722;9.110;2023-06-24T14:57:34;3.33;;;2.70;;
10677;SDS011;5387;48.722;9.110;2023-06-24T15:00:02;3.22;;;2.60;;
10677;SDS011;5387;48.722;9.110;2023-06-24T15:02:30;4.18;;;3.22;;
10677;SDS011;5387;48.722;9.110;2023-06-24T15:04:57;3.00;;;2.80;;
10677;SDS011;5387;48.722;9.110;2023-06-24T15:07:23;2.92;;;2.63;;